Time;durP1;ratioP1;P1;durP2;ratioP2;P2;SDS_P1;SDS_P2;PMS_P1;PMS_P2;Temp;Humidity;BMP_temperature;BMP_pressure;BME280_temperature;BME280_humidity;BME280_pressure;Samples;Min_cycle;Max_cycle;Signal;HPM_P1;HPM_P2
2023/09/14 00:02:16;;;;;;;10.90;8.02;;;;;;;;;;10066857;28;20042;-75
2023/09/14 00:07:08;;;;;;;6.93;6.30;;;;;;;;;;10066508;28;20053;-74
2023/09/14 00:12:00;;;;;;;7.90;7.05;;;;;;;;;;10067456;28;20052;-74
2023/09/14 00:16:52;;;;;;;12.95;7.18;;;;;;;;;;10067062;28;20057;-74
2023/09/14 00:21:44;;;;;;;10.13;7.45;;;;;;;;;;10067903;28;20042;-74
2023/09/14 00:26:36;;;;;;;8.45;6.75;;;;;;;;;;10066726;28;20073;-74
2023/09/14 00:31:27;;;;;;;10.57;7.55;;;;;;;;;;10048308;28;20379;-75
2023/09/14 00:36:19;;;;;;;7.47;6.63;;;;;;;;;;10066147;28;20491;-74
2023/09/14 00:41:12;;;;;;;6.10;5.47;;;;;;;;;;10048873;28;20056;-74
2023/09/14 00:46:07;;;;;;;7.90;6.43;;;;;;;;;;10065613;28;20053;-74
2023/09/14 00:50:59;;;;;;;6.38;5.78;;;;;;;;;;10047566;28;20041;-74
2023/09/14 00:55:51;;;;;;;8.38;6.22;;;;;;;;;;10066104;28;20389;-72
2023/09/14 01:00:44;;;;;;;14.57;5.50;;;;;;;;;;10048135;28;20107;-74
2023/09/14 01:05:37;;;;;;;12.95;5.53;;;;;;;;;;10047650;28;20154;-72
2023/09/14 01:10:28;;;;;;;6.53;5.30;;;;;;;;;;10065956;28;20049;-74
2023/09/14 01:15:28;;;;;;;8.52;5.78;;;;;;;;;;10047163;28;20045;-75
2023/09/14 01:20:26;;;;;;;7.10;5.20;;;;;;;;;;10049234;28;20058;-74
2023/09/14 01:25:35;;;;;;;10.03;5.90;;;;;;;;;;10066941;28;20437;-74
2023/09/14 01:30:27;;;;;;;6.18;5.60;;;;;;;;;;10047718;28;20193;-74
2023/09/14 01:35:19;;;;;;;6.55;5.63;;;;;;;;;;10064733;28;20506;-73
2023/09/14 01:40:11;;;;;;;6.75;4.30;;;;;;;;;;10047624;28;20092;-74
2023/09/14 01:45:04;;;;;;;11.32;7.07;;;;;;;;;;10043425;28;20514;-75
2023/09/14 01:49:56;;;;;;;6.60;5.85;;;;;;;;;;10046222;28;20056;-74
2023/09/14 01:54:48;;;;;;;5.97;5.32;;;;;;;;;;10046055;28;20390;-74
2023/09/14 01:59:40;;;;;;;7.18;5.03;;;;;;;;;;10063136;28;20136;-74
2023/09/14 02:04:32;;;;;;;5.95;5.35;;;;;;;;;;10062861;28;20497;-73
2023/09/14 02:09:25;;;;;;;7.30;5.32;;;;;;;;;;10063070;28;20042;-75
2023/09/14 02:14:17;;;;;;;5.70;5.18;;;;;;;;;;10044904;28;20049;-73
2023/09/14 02:19:09;;;;;;;8.38;6.28;;;;;;;;;;10045519;28;20075;-75
2023/09/14 02:24:01;;;;;;;6.43;5.82;;;;;;;;;;10062794;28;20045;-74
2023/09/14 02:28:54;;;;;;;9.32;5.65;;;;;;;;;;10064782;28;20049;-74
2023/09/14 02:33:45;;;;;;;10.63;6.32;;;;;;;;;;10049019;28;20563;-74
2023/09/14 02:38:38;;;;;;;7.45;6.10;;;;;;;;;;10062603;28;20376;-74
2023/09/14 02:43:29;;;;;;;7.65;5.50;;;;;;;;;;10063687;28;20133;-74
2023/09/14 02:48:22;;;;;;;7.47;6.65;;;;;;;;;;10050700;28;20069;-74
2023/09/14 02:53:14;;;;;;;6.55;5.95;;;;;;;;;;10061956;28;20052;-74
2023/09/14 02:58:08;;;;;;;8.35;6.57;;;;;;;;;;10055765;28;20502;-74
2023/09/14 03:03:00;;;;;;;12.25;5.97;;;;;;;;;;10077020;28;20049;-74
2023/09/14 03:07:52;;;;;;;8.35;7.50;;;;;;;;;;10084251;28;20545;-75
2023/09/14 03:12:45;;;;;;;7.80;7.00;;;;;;;;;;10052780;28;20086;-74
2023/09/14 03:17:37;;;;;;;8.43;6.10;;;;;;;;;;10068740;28;20061;-75
2023/09/14 03:22:29;;;;;;;8.32;7.53;;;;;;;;;;10050293;28;20468;-75
2023/09/14 03:27:21;;;;;;;8.77;5.72;;;;;;;;;;10069613;28;20037;-75
2023/09/14 03:32:13;;;;;;;6.53;5.93;;;;;;;;;;10070157;28;20053;-75
2023/09/14 03:37:08;;;;;;;11.20;5.22;;;;;;;;;;10067846;28;20049;-75
2023/09/14 03:42:00;;;;;;;6.95;6.30;;;;;;;;;;10066646;28;20045;-74
2023/09/14 03:46:53;;;;;;;8.32;6.70;;;;;;;;;;10052508;28;20092;-75
2023/09/14 03:51:45;;;;;;;6.10;5.50;;;;;;;;;;10048452;28;20048;-74
2023/09/14 03:56:38;;;;;;;7.00;5.50;;;;;;;;;;10050230;28;20099;-75
2023/09/14 04:01:29;;;;;;;9.73;5.60;;;;;;;;;;10048243;28;20046;-75
2023/09/14 04:06:21;;;;;;;6.13;5.50;;;;;;;;;;10048300;28;20041;-75
2023/09/14 04:11:13;;;;;;;6.53;5.53;;;;;;;;;;10067209;28;20328;-75
2023/09/14 04:16:05;;;;;;;6.45;5.80;;;;;;;;;;10051126;28;20052;-75
2023/09/14 04:21:00;;;;;;;6.65;5.35;;;;;;;;;;10048204;28;20104;-74
2023/09/14 04:25:53;;;;;;;11.30;6.18;;;;;;;;;;10067273;28;20038;-74
2023/09/14 04:30:48;;;;;;;5.40;4.90;;;;;;;;;;10050101;28;20069;-75
2023/09/14 04:35:41;;;;;;;6.40;5.47;;;;;;;;;;10064974;28;20053;-75
2023/09/14 04:40:43;;;;;;;5.78;5.22;;;;;;;;;;10065131;28;20063;-75
2023/09/14 04:45:35;;;;;;;8.75;6.00;;;;;;;;;;10046614;28;20674;-74
2023/09/14 04:50:28;;;;;;;6.53;5.63;;;;;;;;;;10048347;28;20049;-75
2023/09/14 04:55:21;;;;;;;6.20;5.20;;;;;;;;;;10064068;28;20548;-75
2023/09/14 05:00:14;;;;;;;7.28;6.57;;;;;;;;;;10046033;28;20092;-73
2023/09/14 05:05:08;;;;;;;7.05;6.40;;;;;;;;;;10071040;28;20103;-74
2023/09/14 05:10:00;;;;;;;7.07;6.38;;;;;;;;;;10049011;28;20049;-75
2023/09/14 05:14:52;;;;;;;8.40;7.10;;;;;;;;;;10049014;28;20045;-75
2023/09/14 05:19:45;;;;;;;8.48;6.10;;;;;;;;;;10077985;28;20429;-75
2023/09/14 05:24:38;;;;;;;6.75;5.82;;;;;;;;;;10075368;28;20414;-75
2023/09/14 05:29:34;;;;;;;7.40;5.77;;;;;;;;;;10051986;28;20048;-68
2023/09/14 05:34:26;;;;;;;7.68;5.88;;;;;;;;;;10091380;28;20087;-68
2023/09/14 05:39:18;;;;;;;6.28;5.50;;;;;;;;;;10060808;28;20378;-68
2023/09/14 05:44:10;;;;;;;7.05;6.35;;;;;;;;;;10095209;28;20041;-68
2023/09/14 05:49:03;;;;;;;6.18;5.50;;;;;;;;;;10070286;28;20045;-67
2023/09/14 05:53:55;;;;;;;8.45;5.95;;;;;;;;;;10069240;28;20140;-68
2023/09/14 05:58:49;;;;;;;8.15;6.10;;;;;;;;;;10052966;28;20056;-68
2023/09/14 06:03:42;;;;;;;9.90;6.22;;;;;;;;;;10077385;28;20042;-67
2023/09/14 06:08:35;;;;;;;7.70;7.00;;;;;;;;;;10066050;28;20045;-67
2023/09/14 06:13:28;;;;;;;7.25;6.55;;;;;;;;;;10084014;28;20049;-66
2023/09/14 06:18:20;;;;;;;5.82;5.35;;;;;;;;;;10107057;28;20053;-66
2023/09/14 06:23:12;;;;;;;10.20;6.55;;;;;;;;;;10085995;28;20092;-68
2023/09/14 06:28:04;;;;;;;11.35;7.47;;;;;;;;;;10085406;28;20052;-67
2023/09/14 06:32:56;;;;;;;9.10;8.20;;;;;;;;;;10091562;28;20037;-69
2023/09/14 06:37:48;;;;;;;9.30;7.80;;;;;;;;;;10116479;28;20049;-68
2023/09/14 06:42:41;;;;;;;8.88;8.00;;;;;;;;;;10122818;28;20131;-67
2023/09/14 06:47:33;;;;;;;6.93;6.22;;;;;;;;;;10099347;28;20049;-68
2023/09/14 06:52:25;;;;;;;7.85;7.05;;;;;;;;;;10131409;28;20080;-69
2023/09/14 06:57:17;;;;;;;9.55;7.28;;;;;;;;;;10104268;28;20143;-69
2023/09/14 07:02:09;;;;;;;9.63;7.18;;;;;;;;;;10090365;28;20111;-70
2023/09/14 07:07:01;;;;;;;9.50;8.35;;;;;;;;;;10108182;28;20056;-69
2023/09/14 07:11:54;;;;;;;8.00;7.20;;;;;;;;;;10099188;28;20463;-69
2023/09/14 07:16:45;;;;;;;7.90;7.10;;;;;;;;;;10095454;28;20084;-69
2023/09/14 07:21:37;;;;;;;7.75;7.05;;;;;;;;;;10093379;28;20075;-67
2023/09/14 07:26:29;;;;;;;8.65;6.72;;;;;;;;;;10109074;28;20064;-69
2023/09/14 07:31:21;;;;;;;10.20;7.22;;;;;;;;;;10076269;28;20057;-68
2023/09/14 07:36:13;;;;;;;16.63;7.35;;;;;;;;;;10065694;28;20383;-69
2023/09/14 07:41:05;;;;;;;8.35;7.35;;;;;;;;;;10073456;28;20095;-69
2023/09/14 07:45:57;;;;;;;8.07;6.70;;;;;;;;;;10091442;28;20037;-68
2023/09/14 07:50:49;;;;;;;11.27;6.78;;;;;;;;;;10068011;28;20095;-68
2023/09/14 07:55:41;;;;;;;8.82;7.93;;;;;;;;;;10101851;28;20041;-69
2023/09/14 08:00:34;;;;;;;7.80;7.00;;;;;;;;;;10065081;28;20141;-67
2023/09/14 08:05:28;;;;;;;9.10;7.07;;;;;;;;;;10099905;28;20127;-68
2023/09/14 08:10:20;;;;;;;7.78;6.05;;;;;;;;;;10095159;28;20375;-68
2023/09/14 08:15:12;;;;;;;9.60;7.15;;;;;;;;;;10101963;28;20076;-69
2023/09/14 08:20:05;;;;;;;7.88;6.50;;;;;;;;;;10124744;28;20731;-69
2023/09/14 08:25:00;;;;;;;9.85;6.93;;;;;;;;;;10108100;28;20041;-66
2023/09/14 08:29:53;;;;;;;11.10;7.97;;;;;;;;;;10097144;28;20037;-68
2023/09/14 08:34:45;;;;;;;11.90;8.50;;;;;;;;;;10100602;28;20151;-69
2023/09/14 08:39:39;;;;;;;8.88;7.72;;;;;;;;;;10092118;28;20498;-68
2023/09/14 08:44:34;;;;;;;8.77;7.75;;;;;;;;;;10083816;28;20053;-68
2023/09/14 08:49:28;;;;;;;10.38;8.95;;;;;;;;;;10061130;28;20088;-68
2023/09/14 08:54:21;;;;;;;10.77;8.77;;;;;;;;;;10049217;28;20080;-68
2023/09/14 08:59:15;;;;;;;9.27;8.13;;;;;;;;;;10106895;28;20066;-68
2023/09/14 09:04:07;;;;;;;8.55;7.75;;;;;;;;;;10083826;28;20037;-67
2023/09/14 09:08:59;;;;;;;9.20;7.50;;;;;;;;;;10112992;28;20053;-67
2023/09/14 09:13:51;;;;;;;11.52;8.77;;;;;;;;;;10107885;28;20057;-69
2023/09/14 09:19:02;;;;;;;11.32;9.82;;;;;;;;;;10102084;28;20463;-69
2023/09/14 09:24:06;;;;;;;9.48;7.53;;;;;;;;;;10110877;28;20045;-69
2023/09/14 09:28:58;;;;;;;12.65;9.73;;;;;;;;;;10097083;28;20041;-67
2023/09/14 09:33:50;;;;;;;9.57;8.68;;;;;;;;;;10113122;28;20492;-69
2023/09/14 09:38:45;;;;;;;9.77;8.27;;;;;;;;;;10129237;28;20046;-70
2023/09/14 09:43:40;;;;;;;9.65;8.65;;;;;;;;;;10084267;28;20069;-69
2023/09/14 09:48:32;;;;;;;11.50;8.18;;;;;;;;;;10074315;28;20132;-68
2023/09/14 09:53:25;;;;;;;11.50;8.75;;;;;;;;;;10110672;28;20044;-69
2023/09/14 09:58:18;;;;;;;9.57;7.60;;;;;;;;;;10095877;28;20122;-69
2023/09/14 10:03:16;;;;;;;10.32;9.20;;;;;;;;;;10083602;28;20057;-69
2023/09/14 10:08:27;;;;;;;7.95;7.15;;;;;;;;;;10096996;28;20486;-68
2023/09/14 10:13:20;;;;;;;12.95;7.68;;;;;;;;;;10069543;28;20124;-67
2023/09/14 10:18:14;;;;;;;11.68;9.93;;;;;;;;;;10066758;28;20734;-67
2023/09/14 10:23:06;;;;;;;13.73;9.50;;;;;;;;;;10062246;28;20061;-68
2023/09/14 10:28:00;;;;;;;9.90;8.90;;;;;;;;;;10049671;28;20064;-66
2023/09/14 10:32:53;;;;;;;10.85;7.90;;;;;;;;;;10047414;28;20053;-69
2023/09/14 10:37:46;;;;;;;8.77;7.65;;;;;;;;;;10048479;28;20046;-68
2023/09/14 10:42:42;;;;;;;9.30;7.78;;;;;;;;;;10064131;28;20041;-67
2023/09/14 10:47:37;;;;;;;8.30;7.40;;;;;;;;;;10058211;28;20690;-68
2023/09/14 10:52:29;;;;;;;8.85;7.00;;;;;;;;;;10098493;28;20068;-69
2023/09/14 10:57:23;;;;;;;7.97;7.00;;;;;;;;;;10098071;28;20105;-69
2023/09/14 11:02:41;;;;;;;7.57;6.45;;;;;;;;;;10104106;28;20103;-69
2023/09/14 11:07:48;;;;;;;8.25;7.15;;;;;;;;;;10063577;28;20050;-68
2023/09/14 11:12:41;;;;;;;11.48;6.38;;;;;;;;;;10042783;28;20203;-70
2023/09/14 11:17:41;;;;;;;8.02;7.03;;;;;;;;;;10004232;28;1137926;-69
2023/09/14 11:22:36;;;;;;;9.88;7.70;;;;;;;;;;10066160;28;20049;-68
2023/09/14 11:27:31;;;;;;;8.68;7.18;;;;;;;;;;10066904;28;20144;-69
2023/09/14 11:32:27;;;;;;;14.60;8.63;;;;;;;;;;10065203;28;20064;-69
2023/09/14 11:37:21;;;;;;;9.20;6.77;;;;;;;;;;10067967;28;20085;-68
2023/09/14 11:42:16;;;;;;;15.57;8.07;;;;;;;;;;10065837;28;20398;-70
2023/09/14 11:47:13;;;;;;;7.97;7.18;;;;;;;;;;10065631;28;20360;-70
2023/09/14 11:52:13;;;;;;;9.05;7.53;;;;;;;;;;10062924;28;20531;-70
2023/09/14 11:57:07;;;;;;;10.23;8.13;;;;;;;;;;10046083;28;20033;-70
2023/09/14 12:02:00;;;;;;;8.18;7.38;;;;;;;;;;10046735;28;20121;-69
2023/09/14 12:06:53;;;;;;;8.80;7.55;;;;;;;;;;10063715;28;20046;-69
2023/09/14 12:11:45;;;;;;;8.90;8.20;;;;;;;;;;10063474;28;20045;-70
2023/09/14 12:16:38;;;;;;;9.73;6.60;;;;;;;;;;10065186;28;20045;-68
2023/09/14 12:21:31;;;;;;;6.68;5.95;;;;;;;;;;10064476;28;20049;-70
2023/09/14 12:26:23;;;;;;;8.38;7.43;;;;;;;;;;10064657;28;20503;-69
2023/09/14 12:31:15;;;;;;;9.65;6.97;;;;;;;;;;10061144;28;20056;-69
2023/09/14 12:36:10;;;;;;;9.02;7.57;;;;;;;;;;10045052;28;20041;-69
2023/09/14 12:41:02;;;;;;;11.55;7.40;;;;;;;;;;10045888;28;20049;-69
2023/09/14 12:45:54;;;;;;;10.95;6.80;;;;;;;;;;10044140;28;20581;-69
2023/09/14 12:50:46;;;;;;;8.13;7.38;;;;;;;;;;10067099;28;20056;-70
2023/09/14 12:55:44;;;;;;;10.25;6.50;;;;;;;;;;10078717;28;20211;-70
2023/09/14 13:00:38;;;;;;;6.45;5.90;;;;;;;;;;10062555;28;20055;-70
2023/09/14 13:05:30;;;;;;;7.05;5.70;;;;;;;;;;10063181;28;20038;-69
2023/09/14 13:10:29;;;;;;;9.38;5.90;;;;;;;;;;10063360;28;20049;-70
2023/09/14 13:15:22;;;;;;;7.70;6.85;;;;;;;;;;10059177;28;20049;-69
2023/09/14 13:20:14;;;;;;;6.55;5.63;;;;;;;;;;10067005;28;20149;-69
2023/09/14 13:25:07;;;;;;;6.32;4.85;;;;;;;;;;10048002;28;20460;-69
2023/09/14 13:29:58;;;;;;;6.40;5.78;;;;;;;;;;10061044;28;20057;-69
2023/09/14 13:34:50;;;;;;;7.35;6.05;;;;;;;;;;10062554;28;20320;-69
2023/09/14 13:39:42;;;;;;;7.00;6.05;;;;;;;;;;10062058;28;20045;-68
2023/09/14 13:44:36;;;;;;;6.28;5.68;;;;;;;;;;10062664;28;20503;-67
2023/09/14 13:49:29;;;;;;;6.95;5.47;;;;;;;;;;10064043;28;20372;-69
2023/09/14 13:54:21;;;;;;;11.23;6.95;;;;;;;;;;10060403;28;20092;-70
2023/09/14 13:59:13;;;;;;;7.20;5.80;;;;;;;;;;10061897;28;20072;-69
2023/09/14 14:04:05;;;;;;;7.13;5.93;;;;;;;;;;10059759;28;20057;-70
2023/09/14 14:08:57;;;;;;;7.60;4.88;;;;;;;;;;10061379;28;20313;-69
2023/09/14 14:13:48;;;;;;;6.38;5.75;;;;;;;;;;10060983;28;20045;-69
2023/09/14 14:18:40;;;;;;;5.35;4.57;;;;;;;;;;10058855;28;20050;-70
2023/09/14 14:23:32;;;;;;;7.13;4.53;;;;;;;;;;10060823;28;20050;-69
2023/09/14 14:28:27;;;;;;;7.43;5.65;;;;;;;;;;10062505;28;20068;-68
2023/09/14 14:33:18;;;;;;;5.72;4.70;;;;;;;;;;10079735;28;20041;-69
2023/09/14 14:38:10;;;;;;;5.28;4.78;;;;;;;;;;10088436;28;20049;-69
2023/09/14 14:43:02;;;;;;;7.80;4.78;;;;;;;;;;10066784;28;20145;-69
2023/09/14 14:47:54;;;;;;;6.10;4.50;;;;;;;;;;10091364;28;20072;-68
2023/09/14 14:52:47;;;;;;;6.88;5.20;;;;;;;;;;10099769;28;20041;-68
2023/09/14 14:57:40;;;;;;;9.27;4.88;;;;;;;;;;10097596;28;20130;-69
2023/09/14 15:02:35;;;;;;;7.10;5.65;;;;;;;;;;10087182;28;20382;-66
2023/09/14 15:07:27;;;;;;;5.68;5.20;;;;;;;;;;10081844;28;20041;-67
2023/09/14 15:12:19;;;;;;;5.70;4.72;;;;;;;;;;10079059;28;20053;-67
2023/09/14 15:17:11;;;;;;;6.68;4.80;;;;;;;;;;10087272;28;20375;-67
2023/09/14 15:22:03;;;;;;;12.75;6.90;;;;;;;;;;10085921;28;20045;-66
2023/09/14 15:26:55;;;;;;;6.50;5.32;;;;;;;;;;10082380;28;20071;-66
2023/09/14 15:31:47;;;;;;;5.00;4.40;;;;;;;;;;10072042;28;20072;-66
2023/09/14 15:36:39;;;;;;;8.32;5.22;;;;;;;;;;10072868;28;20052;-65
2023/09/14 15:41:31;;;;;;;6.00;5.38;;;;;;;;;;10081511;28;20123;-66
2023/09/14 15:46:24;;;;;;;4.65;4.20;;;;;;;;;;10088564;28;20111;-66
2023/09/14 15:51:17;;;;;;;6.95;3.22;;;;;;;;;;10079130;28;20140;-66
2023/09/14 15:56:10;;;;;;;4.75;2.55;;;;;;;;;;10079070;28;20486;-66
2023/09/14 16:01:02;;;;;;;3.08;1.95;;;;;;;;;;10082965;28;20085;-66
2023/09/14 16:05:56;;;;;;;3.85;1.80;;;;;;;;;;10081458;28;20132;-65
2023/09/14 16:10:48;;;;;;;2.45;2.13;;;;;;;;;;10085558;28;20123;-66
2023/09/14 16:15:42;;;;;;;5.60;2.63;;;;;;;;;;10083365;28;20041;-65
2023/09/14 16:20:34;;;;;;;6.03;2.63;;;;;;;;;;10090400;28;20049;-66
2023/09/14 16:25:26;;;;;;;13.70;5.13;;;;;;;;;;10076469;28;20046;-74
2023/09/14 16:30:18;;;;;;;10.35;6.85;;;;;;;;;;10087552;28;20045;-72
2023/09/14 16:35:10;;;;;;;9.30;4.60;;;;;;;;;;10082958;28;20040;-70
2023/09/14 16:40:03;;;;;;;15.93;6.55;;;;;;;;;;10074787;28;20092;-70
2023/09/14 16:44:55;;;;;;;11.50;5.65;;;;;;;;;;10061270;28;20444;-73
2023/09/14 16:49:47;;;;;;;9.38;5.53;;;;;;;;;;10083714;28;20040;-73
2023/09/14 16:54:39;;;;;;;8.63;5.50;;;;;;;;;;10134038;28;20064;-73
2023/09/14 16:59:31;;;;;;;7.63;5.78;;;;;;;;;;10061250;28;20045;-73
2023/09/14 17:04:23;;;;;;;8.52;6.38;;;;;;;;;;10061809;28;20451;-74
2023/09/14 17:09:15;;;;;;;8.38;7.60;;;;;;;;;;10069884;28;20045;-78
2023/09/14 17:14:08;;;;;;;9.82;6.88;;;;;;;;;;10097761;28;20045;-77
2023/09/14 17:19:04;;;;;;;8.30;7.60;;;;;;;;;;10073806;28;20045;-77
2023/09/14 17:23:56;;;;;;;7.65;6.85;;;;;;;;;;10064930;28;20120;-78
2023/09/14 17:28:48;;;;;;;8.23;7.45;;;;;;;;;;10073139;28;20550;-80
2023/09/14 17:33:45;;;;;;;9.93;7.75;;;;;;;;;;10082979;28;20036;-78
2023/09/14 17:38:37;;;;;;;10.18;9.18;;;;;;;;;;10095099;28;20041;-81
2023/09/14 17:43:28;;;;;;;10.77;9.68;;;;;;;;;;10085924;28;20463;-77
2023/09/14 17:48:21;;;;;;;10.82;9.93;;;;;;;;;;10076411;28;20050;-79
2023/09/14 17:53:13;;;;;;;9.85;9.05;;;;;;;;;;10078969;28;20091;-78
2023/09/14 17:58:05;;;;;;;10.65;9.60;;;;;;;;;;10050733;28;20048;-79
2023/09/14 18:02:58;;;;;;;7.30;6.63;;;;;;;;;;10074817;28;20049;-78
2023/09/14 18:07:51;;;;;;;7.15;6.55;;;;;;;;;;10068189;28;20049;-81
2023/09/14 18:12:43;;;;;;;9.77;6.68;;;;;;;;;;10120824;28;20494;-81
2023/09/14 18:17:35;;;;;;;6.93;6.35;;;;;;;;;;10076339;28;20487;-79
2023/09/14 18:22:27;;;;;;;7.72;7.13;;;;;;;;;;10086123;28;20052;-80
2023/09/14 18:27:19;;;;;;;7.53;6.18;;;;;;;;;;10096867;28;20056;-80
2023/09/14 18:32:11;;;;;;;7.35;6.68;;;;;;;;;;10107317;28;20041;-79
2023/09/14 18:37:04;;;;;;;8.00;7.13;;;;;;;;;;10094431;28;20486;-79
2023/09/14 18:41:57;;;;;;;10.85;7.20;;;;;;;;;;10097872;28;20369;-84
2023/09/14 18:46:51;;;;;;;7.13;6.50;;;;;;;;;;10094219;28;20485;-75
2023/09/14 18:51:43;;;;;;;7.47;6.78;;;;;;;;;;10123082;28;20099;-81
2023/09/14 18:56:35;;;;;;;8.38;7.57;;;;;;;;;;10112043;28;20037;-83
2023/09/14 19:01:26;;;;;;;8.73;7.78;;;;;;;;;;10067967;28;20047;-83
2023/09/14 19:06:19;;;;;;;7.82;7.13;;;;;;;;;;10088307;28;20049;-81
2023/09/14 19:11:11;;;;;;;9.05;8.25;;;;;;;;;;10067298;28;20075;-85
2023/09/14 19:16:03;;;;;;;17.92;16.23;;;;;;;;;;10066246;28;20372;-84
2023/09/14 19:20:55;;;;;;;19.35;17.50;;;;;;;;;;10069176;28;20053;-83
2023/09/14 19:25:51;;;;;;;19.05;17.23;;;;;;;;;;10086291;28;20048;-84
2023/09/14 19:30:44;;;;;;;16.23;14.82;;;;;;;;;;10098291;28;20044;-80
2023/09/14 19:35:36;;;;;;;14.02;12.88;;;;;;;;;;10077352;28;20044;-82
2023/09/14 19:40:28;;;;;;;17.40;15.35;;;;;;;;;;10081083;28;20167;-81
2023/09/14 19:45:20;;;;;;;14.80;13.40;;;;;;;;;;10092613;28;20382;-82
2023/09/14 19:50:12;;;;;;;12.93;11.68;;;;;;;;;;10124928;28;20045;-81
2023/09/14 19:55:04;;;;;;;10.75;9.75;;;;;;;;;;10107813;28;20064;-81
2023/09/14 19:59:57;;;;;;;15.77;14.32;;;;;;;;;;10094829;28;20056;-81
2023/09/14 20:04:49;;;;;;;15.93;14.25;;;;;;;;;;10094791;28;20041;-80
2023/09/14 20:09:41;;;;;;;14.05;11.50;;;;;;;;;;10090310;28;20046;-81
2023/09/14 20:14:34;;;;;;;15.85;14.35;;;;;;;;;;10078805;28;20045;-83
2023/09/14 20:19:25;;;;;;;11.38;10.38;;;;;;;;;;10083033;28;20088;-83
2023/09/14 20:24:18;;;;;;;10.10;9.20;;;;;;;;;;10105302;28;20044;-81
2023/09/14 20:29:11;;;;;;;9.70;8.55;;;;;;;;;;10119438;28;20471;-79
2023/09/14 20:34:03;;;;;;;11.25;8.45;;;;;;;;;;10082707;28;20435;-81
2023/09/14 20:38:55;;;;;;;11.15;9.15;;;;;;;;;;10113023;28;20045;-80
2023/09/14 20:43:48;;;;;;;13.18;8.93;;;;;;;;;;10071663;28;20550;-80
2023/09/14 20:48:40;;;;;;;9.13;8.32;;;;;;;;;;10071594;28;20498;-79
2023/09/14 20:53:33;;;;;;;10.60;9.60;;;;;;;;;;10104528;28;20064;-79
2023/09/14 20:58:24;;;;;;;18.38;10.85;;;;;;;;;;10108898;28;20053;-79
2023/09/14 21:03:16;;;;;;;12.00;10.70;;;;;;;;;;10081866;28;20132;-80
2023/09/14 21:08:08;;;;;;;9.65;8.75;;;;;;;;;;10084326;28;20082;-80
2023/09/14 21:13:00;;;;;;;10.65;9.55;;;;;;;;;;10115737;28;20471;-80
2023/09/14 21:17:52;;;;;;;11.13;9.30;;;;;;;;;;10086332;28;20072;-81
2023/09/14 21:22:45;;;;;;;8.68;7.95;;;;;;;;;;10078332;28;20463;-80
2023/09/14 21:27:37;;;;;;;10.90;8.45;;;;;;;;;;10092706;28;20046;-81
2023/09/14 21:32:29;;;;;;;11.38;8.82;;;;;;;;;;10070644;28;20033;-82
2023/09/14 21:37:21;;;;;;;11.95;9.10;;;;;;;;;;10075376;28;20060;-80
2023/09/14 21:42:13;;;;;;;10.13;8.40;;;;;;;;;;10077391;28;20044;-81
2023/09/14 21:47:05;;;;;;;10.57;8.85;;;;;;;;;;10090821;28;20124;-78
2023/09/14 21:51:58;;;;;;;10.05;7.97;;;;;;;;;;10087061;28;20036;-81
2023/09/14 21:56:52;;;;;;;9.38;7.43;;;;;;;;;;10081035;28;20080;-80
2023/09/14 22:01:45;;;;;;;8.50;7.50;;;;;;;;;;10089968;28;20154;-80
2023/09/14 22:06:40;;;;;;;11.52;7.25;;;;;;;;;;10089113;28;20055;-79
2023/09/14 22:11:35;;;;;;;9.63;7.88;;;;;;;;;;10113935;28;20051;-79
2023/09/14 22:16:29;;;;;;;10.93;7.97;;;;;;;;;;10075845;28;20046;-78
2023/09/14 22:21:23;;;;;;;11.07;8.85;;;;;;;;;;10072019;28;20404;-79
2023/09/14 22:26:16;;;;;;;10.07;8.13;;;;;;;;;;10083042;28;20048;-80
2023/09/14 22:31:11;;;;;;;12.75;7.75;;;;;;;;;;10105924;28;20049;-77
2023/09/14 22:36:04;;;;;;;11.48;8.98;;;;;;;;;;10081006;28;20041;-80
2023/09/14 22:40:56;;;;;;;11.15;10.05;;;;;;;;;;10126822;28;20041;-79
2023/09/14 22:45:47;;;;;;;8.38;7.63;;;;;;;;;;10115130;28;20426;-79
2023/09/14 22:50:39;;;;;;;10.20;9.20;;;;;;;;;;10124382;28;20466;-79
2023/09/14 22:55:31;;;;;;;16.65;10.07;;;;;;;;;;10124155;28;20036;-78
2023/09/14 23:00:23;;;;;;;9.63;8.73;;;;;;;;;;10125941;28;20102;-80
2023/09/14 23:05:15;;;;;;;12.07;9.98;;;;;;;;;;10118125;28;20480;-77
2023/09/14 23:10:18;;;;;;;13.63;9.40;;;;;;;;;;10117820;28;20227;-78
2023/09/14 23:15:10;;;;;;;11.52;9.63;;;;;;;;;;10112565;28;20094;-78
2023/09/14 23:20:17;;;;;;;11.13;9.90;;;;;;;;;;10127071;28;20060;-80
2023/09/14 23:25:13;;;;;;;10.38;9.15;;;;;;;;;;10115639;28;20049;-79
2023/09/14 23:30:06;;;;;;;10.07;9.07;;;;;;;;;;10097539;28;20099;-79
2023/09/14 23:34:59;;;;;;;10.73;9.27;;;;;;;;;;10118918;28;20140;-79
2023/09/14 23:39:51;;;;;;;12.48;9.15;;;;;;;;;;10109744;28;20048;-77
2023/09/14 23:44:43;;;;;;;13.23;9.48;;;;;;;;;;10087147;28;20136;-78
2023/09/14 23:49:36;;;;;;;8.90;8.00;;;;;;;;;;10095229;28;20136;-78
2023/09/14 23:54:28;;;;;;;14.27;9.55;;;;;;;;;;10087389;28;20049;-79
2023/09/14 23:59:21;;;;;;;9.95;8.68;;;;;;;;;;10098659;28;20048;-79
